METAR stanice u blizini

 

LYBE - Beograd / Surčin, Srbija
Ažurirano: 27/01/2020 12:30
Light drizzle, Mist, Oblačno
Light drizzle, Mist, Oblačno
 Pravac vetra Z
Vetar: Z 20 km/h
Temperatura: 2°C
Osećaj hladnoće: -3°C
Tačka rose: 2°C
Vlažnost: 100%
Pritisak: 1018 hPa
Pregled: Light drizzle, Mist
Oblaci: Oblačno
Vidljivost: 2 km
Cloud details: Oblačno 91 m
2020/01/27 11:30 LYBE 271130Z 27011KT 2000 -DZ BR OVC003 02/02 Q1018 NOSIG
LYBT - Beograd / Batajnica, Srbija
Ažurirano: 27/01/2020 12:30
Mist, Pretežno oblačno
Mist, Pretežno oblačno
 Pravac vetra JZ
Vetar: JZ 11 km/h
Temperatura: 3°C
Osećaj hladnoće: 0°C
Tačka rose: 3°C
Vlažnost: 100%
Pritisak: 1018 hPa
Pregled: Mist
Oblaci: Mostly Cloudy
Vidljivost: 2 km
Cloud details: Mostly Cloudy 91 m
2020/01/27 11:30 LYBT 271130Z 23006KT 1500 BR BKN003 03/03 Q1018 NOSIG
LYVR - Vršac, Srbija
Ažurirano: 27/01/2020 12:30
Slaba kiša, Mist, Pretežno oblačno
Slaba kiša, Mist, Pretežno oblačno
 Pravac vetra Z
Vetar: Z 7 km/h
Temperatura: 5°C
Osećaj hladnoće: 3°C
Tačka rose: 5°C
Vlažnost: 100%
Pritisak: 1017 hPa
Pregled: Slaba kiša, Mist
Oblaci: Mostly Cloudy
Vidljivost: 2 km
Cloud details: Mostly Cloudy 91 m
2020/01/27 11:30 LYVR 271130Z 27004KT 2000 -RA BR BKN003 05/05 Q1017 NOSIG
 
LYKV - Lađevci, Srbija
Ažurirano: 27/01/2020 12:30
Mist, Pretežno oblačno
Mist, Pretežno oblačno
 Pravac vetra SZ
Vetar: SZ 9 km/h
Temperatura: 5°C
Osećaj hladnoće: 3°C
Tačka rose: 5°C
Vlažnost: 100%
Pritisak: 1017 hPa
Pregled: Mist
Oblaci: Mostly Cloudy
Vidljivost: 3 km
Cloud details: Mostly Cloudy 518 m
Mostly Cloudy 914 m
2020/01/27 11:30 LYKV 271130Z 31005KT 270V340 3000 BR BKN017 BKN030 05/05 Q1017 BECMG 6000 NSW
LYNI - Niš, Srbija
Ažurirano: 27/01/2020 12:30
Mist, Oblačno
Mist, Oblačno
 Pravac vetra SZ
Vetar: SZ 9 km/h
Temperatura: 7°C
Osećaj hladnoće: 6°C
Tačka rose: 7°C
Vlažnost: 100%
Pritisak: 1016 hPa
Pregled: Mist
Oblaci: Oblačno
Vidljivost: 3 km
Cloud details: Mostly Cloudy 152 m
Oblačno 671 m
2020/01/27 11:30 LYNI 271130Z 32005KT 2500 BR BKN005 OVC022 07/07 Q1016 NOSIG
BKPR - Priština, Srbija
Ažurirano: 27/01/2020 13:00
Mostly Cloudy
Mostly Cloudy
 Pravac vetra varies
Vetar: varies 6 km/h
Temperatura: 9°C
Tačka rose: 5°C
Vlažnost: 76%
Pritisak: 1015 hPa
Oblaci: Mostly Cloudy
Vidljivost: 10 km
Cloud details: Few Clouds 762 m
Mostly Cloudy 1067 m
2020/01/27 12:00 BKPR 271200Z VRB03KT 9999 FEW025 BKN035 09/05 Q1015 NOSIG RMK 17010095
 
LHPP - Pecs / Pogany, Hungary
Ažurirano: 27/01/2020 12:15
Mist, Pretežno oblačno
Mist, Pretežno oblačno
 Pravac vetra Z
Vetar: Z 9 km/h
Temperatura: 3°C
Osećaj hladnoće: 0°C
Tačka rose: 1°C
Vlažnost: 87%
Pritisak: 1018 hPa
Pregled: Mist
Oblaci: Mostly Cloudy
Vidljivost: 3 km
Cloud details: Mostly Cloudy 488 m
2020/01/27 11:15 LHPP 271115Z 27005KT 3000 BR BKN016 03/01 Q1018
LHUD - Szeged, Hungary
Ažurirano: 04/07/2019 01:45
NOT Current
Vedro
Vedro
 Pravac vetra S
Vetar: S 7 km/h
Temperatura: 18°C
Tačka rose: 13°C
Vlažnost: 73%
Pritisak: 1019 hPa
Pregled: Vedro
Vidljivost: greater than 10 km
2019/07/03 23:45 LHUD 032345Z 35004KT CAVOK 18/13 Q1019
LRTR - Timisoara, Romania
Ažurirano: 27/01/2020 12:30
Slaba kiša, Mist, Oblačno
Slaba kiša, Mist, Oblačno
 Pravac vetra ZSZ
Vetar: ZSZ 13 km/h
Temperatura: 4°C
Osećaj hladnoće: 1°C
Tačka rose: 4°C
Vlažnost: 100%
Pritisak: 1017 hPa
Pregled: Slaba kiša, Mist
Oblaci: Oblačno
Vidljivost: 1 km
Cloud details: Oblačno 61 m
2020/01/27 11:30 LRTR 271130Z 29007KT 1200 R11/1500U R29/1400N -RA BR OVC002 04/04 Q1017 R11/29//95 TEMPO 1500
 
LRCV - Craiova, Romania
Ažurirano: 27/01/2020 12:30
Slaba kiša, Mist, Oblačno
Slaba kiša, Mist, Oblačno
 Pravac vetra Z
Vetar: Z 9 km/h
Temperatura: 5°C
Osećaj hladnoće: 3°C
Tačka rose: 4°C
Vlažnost: 93%
Pritisak: 1015 hPa
Pregled: Slaba kiša, Mist
Oblaci: Oblačno
Vidljivost: 5 km
Cloud details: Oblačno 1463 m
2020/01/27 11:30 LRCV 271130Z 28005KT 4500 -RA BR OVC048 05/04 Q1015 R27/29//95
LBSF - Sofia, Bulgaria
Ažurirano: 27/01/2020 12:30
Mist, Oblačno
Mist, Oblačno
 Pravac vetra Z
Vetar: Z 7 km/h
Temperatura: 6°C
Osećaj hladnoće: 4°C
Tačka rose: 4°C
Vlažnost: 87%
Pritisak: 1015 hPa
Pregled: Mist
Oblaci: Oblačno
Vidljivost: 5 km
Cloud details: Mostly Cloudy 1219 m
Oblačno 2103 m
2020/01/27 11:30 LBSF 271130Z 28004KT 240V310 5000 BR BKN040 OVC069 06/04 Q1015 R99/29//95 NOSIG
LWSK - Skoplje, Makedonija
Ažurirano: 27/01/2020 13:00
Light drizzle, Pretežno oblačno
Light drizzle, Pretežno oblačno
 Pravac vetra calm
Vetar: Tišina
Temperatura: 7°C
Tačka rose: 5°C
Vlažnost: 87%
Pritisak: 1017 hPa
Pregled: Light Drizzle
Oblaci: Mostly Cloudy
Vidljivost: 3 km
Cloud details: Partly Cloudy 396 m
Mostly Cloudy 914 m
2020/01/27 12:00 LWSK 271200Z 00000KT 2800 -DZ SCT013 BKN030 07/05 Q1017 NOSIG
 
LYPG - Podgorica, Crna Gora
Ažurirano: 27/01/2020 12:30
Mostly Cloudy
Mostly Cloudy
 Pravac vetra JJI
Vetar: JJI 6 km/h
Temperatura: 10°C
Tačka rose: 8°C
Vlažnost: 88%
Pritisak: 1017 hPa
Oblaci: Mostly Cloudy
Vidljivost: 10 km
Cloud details: Few Clouds 305 m
Mostly Cloudy 2134 m
2020/01/27 11:30 LYPG 271130Z 16003KT 110V200 9999 FEW010 BKN070 10/08 Q1017 NOSIG
LQSA - Sarajevo, Bosna i Hercegovina
Ažurirano: 27/01/2020 12:30
Light drizzle, Magla, Oblačno
Light drizzle, Magla, Oblačno
 Pravac vetra calm
Vetar: Tišina
Temperatura: 4°C
Tačka rose: 4°C
Vlažnost: 100%
Pritisak: 1018 hPa
Pregled: Light drizzle, Magla
Oblaci: Oblačno
Vidljivost: 0 km
Cloud details: Few Clouds 91 m
Partly Cloudy 396 m
Oblačno 610 m
2020/01/27 11:30 LQSA 271130Z 00000KT 0400 R11/0400N -DZ FG FEW003 SCT013 OVC020 04/04 Q1018 TEMPO 0600
LDOS - Osijek, Hrvatksa
Ažurirano: 27/01/2020 12:30
Mist, Oblačno
Mist, Oblačno
 Pravac vetra ZSZ
Vetar: ZSZ 15 km/h
Temperatura: 3°C
Osećaj hladnoće: -1°C
Tačka rose: 2°C
Vlažnost: 93%
Pritisak: 1019 hPa
Pregled: Mist
Oblaci: Oblačno
Vidljivost: 3 km
Cloud details: Mostly Cloudy 91 m
Oblačno 213 m
2020/01/27 11:30 LDOS 271130Z 29008KT 3000 BR BKN003 OVC007 03/02 Q1019